sensor_id;sensor_type;location;lat;lon;timestamp;P1;durP1;ratioP1;P2;durP2;ratioP2
50267;SDS011;36153;50.960;6.220;2022-11-20T00:00:35;22.98;;;11.98;;
50267;SDS011;36153;50.960;6.220;2022-11-20T00:03:35;27.30;;;12.20;;
50267;SDS011;36153;50.960;6.220;2022-11-20T00:06:36;26.10;;;11.95;;
50267;SDS011;36153;50.960;6.220;2022-11-20T00:09:37;21.50;;;11.45;;
50267;SDS011;36153;50.960;6.220;2022-11-20T00:12:37;25.60;;;12.73;;
50267;SDS011;36153;50.960;6.220;2022-11-20T00:15:38;29.45;;;11.50;;
50267;SDS011;36153;50.960;6.220;2022-11-20T00:18:38;23.20;;;12.55;;
50267;SDS011;36153;50.960;6.220;2022-11-20T00:21:40;22.55;;;12.65;;
50267;SDS011;36153;50.960;6.220;2022-11-20T00:24:40;22.00;;;11.85;;
50267;SDS011;36153;50.960;6.220;2022-11-20T00:27:41;23.60;;;12.13;;
50267;SDS011;36153;50.960;6.220;2022-11-20T00:30:41;25.20;;;12.75;;
50267;SDS011;36153;50.960;6.220;2022-11-20T00:33:42;25.20;;;13.25;;
50267;SDS011;36153;50.960;6.220;2022-11-20T00:36:44;24.67;;;12.75;;
50267;SDS011;36153;50.960;6.220;2022-11-20T00:39:44;23.90;;;12.43;;
50267;SDS011;36153;50.960;6.220;2022-11-20T00:42:45;22.38;;;12.80;;
50267;SDS011;36153;50.960;6.220;2022-11-20T00:45:45;24.90;;;12.80;;
50267;SDS011;36153;50.960;6.220;2022-11-20T00:48:46;23.33;;;13.15;;
50267;SDS011;36153;50.960;6.220;2022-11-20T00:51:47;23.38;;;11.77;;
50267;SDS011;36153;50.960;6.220;2022-11-20T00:54:47;25.00;;;12.00;;
50267;SDS011;36153;50.960;6.220;2022-11-20T00:57:48;23.45;;;12.35;;
50267;SDS011;36153;50.960;6.220;2022-11-20T01:00:49;26.55;;;13.07;;
50267;SDS011;36153;50.960;6.220;2022-11-20T01:03:50;23.38;;;12.55;;
50267;SDS011;36153;50.960;6.220;2022-11-20T01:06:52;27.13;;;13.20;;
50267;SDS011;36153;50.960;6.220;2022-11-20T01:09:52;21.48;;;10.88;;
50267;SDS011;36153;50.960;6.220;2022-11-20T01:12:53;24.98;;;12.35;;
50267;SDS011;36153;50.960;6.220;2022-11-20T01:16:17;25.65;;;12.88;;
50267;SDS011;36153;50.960;6.220;2022-11-20T01:19:21;25.08;;;11.95;;
50267;SDS011;36153;50.960;6.220;2022-11-20T01:22:22;28.35;;;13.00;;
50267;SDS011;36153;50.960;6.220;2022-11-20T01:25:23;25.30;;;12.95;;
50267;SDS011;36153;50.960;6.220;2022-11-20T01:28:24;25.60;;;13.25;;
50267;SDS011;36153;50.960;6.220;2022-11-20T01:31:42;24.42;;;12.65;;
50267;SDS011;36153;50.960;6.220;2022-11-20T01:34:44;22.45;;;11.82;;
50267;SDS011;36153;50.960;6.220;2022-11-20T01:37:44;25.13;;;13.07;;
50267;SDS011;36153;50.960;6.220;2022-11-20T01:40:45;22.40;;;11.65;;
50267;SDS011;36153;50.960;6.220;2022-11-20T01:43:53;26.27;;;12.70;;
50267;SDS011;36153;50.960;6.220;2022-11-20T01:46:57;24.08;;;12.48;;
50267;SDS011;36153;50.960;6.220;2022-11-20T01:50:10;24.58;;;12.15;;
50267;SDS011;36153;50.960;6.220;2022-11-20T01:53:18;30.40;;;12.88;;
50267;SDS011;36153;50.960;6.220;2022-11-20T01:56:22;25.25;;;12.60;;
50267;SDS011;36153;50.960;6.220;2022-11-20T01:59:25;23.95;;;12.30;;
50267;SDS011;36153;50.960;6.220;2022-11-20T02:02:26;24.33;;;12.45;;
50267;SDS011;36153;50.960;6.220;2022-11-20T02:08:42;29.60;;;13.30;;
50267;SDS011;36153;50.960;6.220;2022-11-20T02:11:43;25.30;;;12.82;;
50267;SDS011;36153;50.960;6.220;2022-11-20T02:14:43;23.08;;;12.05;;
50267;SDS011;36153;50.960;6.220;2022-11-20T02:17:44;29.45;;;13.98;;
50267;SDS011;36153;50.960;6.220;2022-11-20T02:20:45;28.52;;;12.27;;
50267;SDS011;36153;50.960;6.220;2022-11-20T02:23:54;30.92;;;11.82;;
50267;SDS011;36153;50.960;6.220;2022-11-20T02:27:09;27.52;;;13.07;;
50267;SDS011;36153;50.960;6.220;2022-11-20T02:30:11;24.48;;;12.35;;
50267;SDS011;36153;50.960;6.220;2022-11-20T02:33:12;26.98;;;12.82;;
50267;SDS011;36153;50.960;6.220;2022-11-20T02:36:14;26.42;;;12.50;;
50267;SDS011;36153;50.960;6.220;2022-11-20T02:39:16;25.52;;;12.88;;
50267;SDS011;36153;50.960;6.220;2022-11-20T02:42:17;25.38;;;13.07;;
50267;SDS011;36153;50.960;6.220;2022-11-20T02:45:17;31.60;;;13.05;;
50267;SDS011;36153;50.960;6.220;2022-11-20T02:48:18;23.70;;;13.40;;
50267;SDS011;36153;50.960;6.220;2022-11-20T02:51:19;26.33;;;13.10;;
50267;SDS011;36153;50.960;6.220;2022-11-20T02:54:19;26.92;;;12.90;;
50267;SDS011;36153;50.960;6.220;2022-11-20T02:57:19;29.17;;;12.98;;
50267;SDS011;36153;50.960;6.220;2022-11-20T03:00:20;29.50;;;12.75;;
50267;SDS011;36153;50.960;6.220;2022-11-20T03:03:20;19.23;;;10.68;;
50267;SDS011;36153;50.960;6.220;2022-11-20T03:06:21;22.33;;;12.75;;
50267;SDS011;36153;50.960;6.220;2022-11-20T03:09:21;25.60;;;12.55;;
50267;SDS011;36153;50.960;6.220;2022-11-20T03:12:22;25.38;;;12.00;;
50267;SDS011;36153;50.960;6.220;2022-11-20T03:15:23;29.90;;;12.68;;
50267;SDS011;36153;50.960;6.220;2022-11-20T03:18:24;24.42;;;12.68;;
50267;SDS011;36153;50.960;6.220;2022-11-20T03:21:24;28.65;;;13.20;;
50267;SDS011;36153;50.960;6.220;2022-11-20T03:24:25;25.55;;;11.93;;
50267;SDS011;36153;50.960;6.220;2022-11-20T03:27:26;26.98;;;12.57;;
50267;SDS011;36153;50.960;6.220;2022-11-20T03:30:26;26.73;;;12.82;;
50267;SDS011;36153;50.960;6.220;2022-11-20T03:33:27;26.17;;;11.40;;
50267;SDS011;36153;50.960;6.220;2022-11-20T03:36:28;26.33;;;12.63;;
50267;SDS011;36153;50.960;6.220;2022-11-20T03:39:29;24.02;;;12.23;;
50267;SDS011;36153;50.960;6.220;2022-11-20T03:42:29;23.33;;;12.20;;
50267;SDS011;36153;50.960;6.220;2022-11-20T03:45:45;24.83;;;12.45;;
50267;SDS011;36153;50.960;6.220;2022-11-20T03:48:46;26.55;;;13.20;;
50267;SDS011;36153;50.960;6.220;2022-11-20T03:51:47;34.80;;;12.73;;
50267;SDS011;36153;50.960;6.220;2022-11-20T03:54:47;25.95;;;12.27;;
50267;SDS011;36153;50.960;6.220;2022-11-20T03:57:48;28.48;;;13.55;;
50267;SDS011;36153;50.960;6.220;2022-11-20T04:00:49;24.40;;;12.90;;
50267;SDS011;36153;50.960;6.220;2022-11-20T04:03:51;29.73;;;13.00;;
50267;SDS011;36153;50.960;6.220;2022-11-20T04:06:52;22.73;;;11.20;;
50267;SDS011;36153;50.960;6.220;2022-11-20T04:09:52;25.33;;;12.23;;
50267;SDS011;36153;50.960;6.220;2022-11-20T04:12:53;24.17;;;11.07;;
50267;SDS011;36153;50.960;6.220;2022-11-20T04:15:56;31.42;;;13.20;;
50267;SDS011;36153;50.960;6.220;2022-11-20T04:18:58;29.08;;;13.38;;
50267;SDS011;36153;50.960;6.220;2022-11-20T04:22:00;24.00;;;13.57;;
50267;SDS011;36153;50.960;6.220;2022-11-20T04:25:01;27.48;;;13.40;;
50267;SDS011;36153;50.960;6.220;2022-11-20T04:28:01;24.30;;;12.82;;
50267;SDS011;36153;50.960;6.220;2022-11-20T04:31:03;27.27;;;14.68;;
50267;SDS011;36153;50.960;6.220;2022-11-20T04:34:06;30.33;;;13.75;;
50267;SDS011;36153;50.960;6.220;2022-11-20T04:37:07;27.15;;;13.75;;
50267;SDS011;36153;50.960;6.220;2022-11-20T04:40:07;24.42;;;13.45;;
50267;SDS011;36153;50.960;6.220;2022-11-20T04:43:08;25.45;;;12.88;;
50267;SDS011;36153;50.960;6.220;2022-11-20T04:46:09;29.48;;;13.10;;
50267;SDS011;36153;50.960;6.220;2022-11-20T04:49:10;25.45;;;13.20;;
50267;SDS011;36153;50.960;6.220;2022-11-20T04:52:10;25.35;;;12.57;;
50267;SDS011;36153;50.960;6.220;2022-11-20T04:55:11;24.08;;;12.75;;
50267;SDS011;36153;50.960;6.220;2022-11-20T04:58:12;28.25;;;13.27;;
50267;SDS011;36153;50.960;6.220;2022-11-20T05:01:13;22.30;;;11.55;;
50267;SDS011;36153;50.960;6.220;2022-11-20T05:04:16;29.23;;;13.40;;
50267;SDS011;36153;50.960;6.220;2022-11-20T05:07:16;22.52;;;11.32;;
50267;SDS011;36153;50.960;6.220;2022-11-20T05:10:17;25.35;;;12.90;;
50267;SDS011;36153;50.960;6.220;2022-11-20T05:13:17;24.02;;;13.07;;
50267;SDS011;36153;50.960;6.220;2022-11-20T05:16:19;24.52;;;12.57;;
50267;SDS011;36153;50.960;6.220;2022-11-20T05:19:21;22.13;;;11.90;;
50267;SDS011;36153;50.960;6.220;2022-11-20T05:22:21;25.20;;;13.20;;
50267;SDS011;36153;50.960;6.220;2022-11-20T05:25:22;27.98;;;12.93;;
50267;SDS011;36153;50.960;6.220;2022-11-20T05:28:22;22.63;;;11.60;;
50267;SDS011;36153;50.960;6.220;2022-11-20T05:31:24;26.85;;;13.25;;
50267;SDS011;36153;50.960;6.220;2022-11-20T05:34:25;25.60;;;13.82;;
50267;SDS011;36153;50.960;6.220;2022-11-20T05:37:25;23.42;;;11.90;;
50267;SDS011;36153;50.960;6.220;2022-11-20T05:40:25;27.67;;;13.43;;
50267;SDS011;36153;50.960;6.220;2022-11-20T05:43:26;25.13;;;13.48;;
50267;SDS011;36153;50.960;6.220;2022-11-20T05:46:26;22.98;;;11.95;;
50267;SDS011;36153;50.960;6.220;2022-11-20T05:49:27;25.70;;;14.00;;
50267;SDS011;36153;50.960;6.220;2022-11-20T05:52:30;26.58;;;13.65;;
50267;SDS011;36153;50.960;6.220;2022-11-20T05:55:31;22.52;;;11.30;;
50267;SDS011;36153;50.960;6.220;2022-11-20T05:58:31;25.67;;;14.10;;
50267;SDS011;36153;50.960;6.220;2022-11-20T06:01:32;24.63;;;13.02;;
50267;SDS011;36153;50.960;6.220;2022-11-20T06:04:32;24.00;;;13.48;;
50267;SDS011;36153;50.960;6.220;2022-11-20T06:07:33;27.98;;;13.27;;
50267;SDS011;36153;50.960;6.220;2022-11-20T06:10:33;27.23;;;13.85;;
50267;SDS011;36153;50.960;6.220;2022-11-20T06:13:34;27.98;;;13.63;;
50267;SDS011;36153;50.960;6.220;2022-11-20T06:16:34;33.60;;;14.35;;
50267;SDS011;36153;50.960;6.220;2022-11-20T06:19:35;27.60;;;13.93;;
50267;SDS011;36153;50.960;6.220;2022-11-20T06:22:35;26.52;;;13.20;;
50267;SDS011;36153;50.960;6.220;2022-11-20T06:25:42;39.50;;;14.32;;
50267;SDS011;36153;50.960;6.220;2022-11-20T06:28:43;33.42;;;15.65;;
50267;SDS011;36153;50.960;6.220;2022-11-20T06:31:43;30.20;;;14.55;;
50267;SDS011;36153;50.960;6.220;2022-11-20T06:34:43;35.97;;;15.98;;
50267;SDS011;36153;50.960;6.220;2022-11-20T06:37:44;37.00;;;15.20;;
50267;SDS011;36153;50.960;6.220;2022-11-20T06:40:44;38.35;;;17.02;;
50267;SDS011;36153;50.960;6.220;2022-11-20T06:43:44;47.33;;;17.48;;
50267;SDS011;36153;50.960;6.220;2022-11-20T06:46:45;53.47;;;17.48;;
50267;SDS011;36153;50.960;6.220;2022-11-20T06:49:45;56.67;;;19.13;;
50267;SDS011;36153;50.960;6.220;2022-11-20T06:52:45;56.78;;;19.77;;
50267;SDS011;36153;50.960;6.220;2022-11-20T06:55:46;63.05;;;20.50;;
50267;SDS011;36153;50.960;6.220;2022-11-20T06:58:47;52.38;;;19.80;;
50267;SDS011;36153;50.960;6.220;2022-11-20T07:01:47;47.33;;;18.15;;
50267;SDS011;36153;50.960;6.220;2022-11-20T07:04:48;47.75;;;17.90;;
50267;SDS011;36153;50.960;6.220;2022-11-20T07:07:48;58.10;;;21.48;;
50267;SDS011;36153;50.960;6.220;2022-11-20T07:10:48;57.70;;;20.52;;
50267;SDS011;36153;50.960;6.220;2022-11-20T07:13:49;53.53;;;19.90;;
50267;SDS011;36153;50.960;6.220;2022-11-20T07:16:49;51.08;;;18.30;;
50267;SDS011;36153;50.960;6.220;2022-11-20T07:19:50;44.28;;;20.15;;
50267;SDS011;36153;50.960;6.220;2022-11-20T07:22:54;43.78;;;17.10;;
50267;SDS011;36153;50.960;6.220;2022-11-20T07:25:55;51.90;;;19.80;;
50267;SDS011;36153;50.960;6.220;2022-11-20T07:28:56;45.83;;;18.27;;
50267;SDS011;36153;50.960;6.220;2022-11-20T07:31:56;43.13;;;18.48;;
50267;SDS011;36153;50.960;6.220;2022-11-20T07:34:56;46.45;;;17.33;;
50267;SDS011;36153;50.960;6.220;2022-11-20T07:37:57;42.03;;;18.30;;
50267;SDS011;36153;50.960;6.220;2022-11-20T07:40:57;41.63;;;16.50;;
50267;SDS011;36153;50.960;6.220;2022-11-20T07:43:58;39.35;;;16.25;;
50267;SDS011;36153;50.960;6.220;2022-11-20T07:46:58;33.20;;;14.95;;
50267;SDS011;36153;50.960;6.220;2022-11-20T07:49:58;38.47;;;16.38;;
50267;SDS011;36153;50.960;6.220;2022-11-20T07:53:03;36.10;;;14.95;;
50267;SDS011;36153;50.960;6.220;2022-11-20T07:56:04;35.55;;;15.50;;
50267;SDS011;36153;50.960;6.220;2022-11-20T07:59:05;34.55;;;14.23;;
50267;SDS011;36153;50.960;6.220;2022-11-20T08:02:05;26.25;;;12.07;;
50267;SDS011;36153;50.960;6.220;2022-11-20T08:05:06;30.30;;;12.85;;
50267;SDS011;36153;50.960;6.220;2022-11-20T08:08:07;28.88;;;12.60;;
50267;SDS011;36153;50.960;6.220;2022-11-20T08:11:08;29.60;;;12.73;;
50267;SDS011;36153;50.960;6.220;2022-11-20T08:14:27;28.75;;;13.77;;
50267;SDS011;36153;50.960;6.220;2022-11-20T08:17:27;35.58;;;14.00;;
50267;SDS011;36153;50.960;6.220;2022-11-20T08:20:28;31.88;;;12.52;;
50267;SDS011;36153;50.960;6.220;2022-11-20T08:23:28;28.70;;;12.90;;
50267;SDS011;36153;50.960;6.220;2022-11-20T08:26:28;30.25;;;13.05;;
50267;SDS011;36153;50.960;6.220;2022-11-20T08:29:29;30.17;;;13.40;;
50267;SDS011;36153;50.960;6.220;2022-11-20T08:32:29;28.55;;;12.95;;
50267;SDS011;36153;50.960;6.220;2022-11-20T08:35:36;32.50;;;15.32;;
50267;SDS011;36153;50.960;6.220;2022-11-20T08:38:37;33.10;;;12.90;;
50267;SDS011;36153;50.960;6.220;2022-11-20T08:41:38;28.70;;;12.02;;
50267;SDS011;36153;50.960;6.220;2022-11-20T08:44:38;32.72;;;14.20;;
50267;SDS011;36153;50.960;6.220;2022-11-20T08:47:38;29.13;;;13.65;;
50267;SDS011;36153;50.960;6.220;2022-11-20T08:50:39;25.58;;;12.80;;
50267;SDS011;36153;50.960;6.220;2022-11-20T08:53:39;26.15;;;13.35;;
50267;SDS011;36153;50.960;6.220;2022-11-20T08:56:40;29.98;;;13.38;;
50267;SDS011;36153;50.960;6.220;2022-11-20T08:59:40;21.75;;;11.07;;
50267;SDS011;36153;50.960;6.220;2022-11-20T09:02:41;27.75;;;13.20;;
50267;SDS011;36153;50.960;6.220;2022-11-20T09:05:41;24.50;;;12.50;;
50267;SDS011;36153;50.960;6.220;2022-11-20T09:08:42;32.53;;;14.55;;
50267;SDS011;36153;50.960;6.220;2022-11-20T09:11:43;42.67;;;18.08;;
50267;SDS011;36153;50.960;6.220;2022-11-20T09:14:44;32.75;;;16.05;;
50267;SDS011;36153;50.960;6.220;2022-11-20T09:17:57;33.72;;;16.83;;
50267;SDS011;36153;50.960;6.220;2022-11-20T09:20:59;28.10;;;14.20;;
50267;SDS011;36153;50.960;6.220;2022-11-20T09:24:00;30.13;;;14.32;;
50267;SDS011;36153;50.960;6.220;2022-11-20T09:27:01;32.80;;;17.15;;
50267;SDS011;36153;50.960;6.220;2022-11-20T09:30:03;32.60;;;16.02;;
50267;SDS011;36153;50.960;6.220;2022-11-20T09:33:05;37.80;;;17.85;;
50267;SDS011;36153;50.960;6.220;2022-11-20T09:36:06;39.70;;;18.80;;
50267;SDS011;36153;50.960;6.220;2022-11-20T09:39:07;37.42;;;16.85;;
50267;SDS011;36153;50.960;6.220;2022-11-20T09:42:19;33.45;;;15.18;;
50267;SDS011;36153;50.960;6.220;2022-11-20T09:52:22;44.33;;;17.88;;
50267;SDS011;36153;50.960;6.220;2022-11-20T09:55:31;36.17;;;16.83;;
50267;SDS011;36153;50.960;6.220;2022-11-20T09:58:36;37.17;;;17.23;;
50267;SDS011;36153;50.960;6.220;2022-11-20T10:01:41;39.08;;;17.73;;
50267;SDS011;36153;50.960;6.220;2022-11-20T10:04:44;38.47;;;17.10;;
50267;SDS011;36153;50.960;6.220;2022-11-20T10:08:02;40.67;;;18.85;;
50267;SDS011;36153;50.960;6.220;2022-11-20T10:11:08;38.05;;;18.50;;
50267;SDS011;36153;50.960;6.220;2022-11-20T10:21:33;34.28;;;16.45;;
50267;SDS011;36153;50.960;6.220;2022-11-20T10:24:48;37.38;;;16.85;;
50267;SDS011;36153;50.960;6.220;2022-11-20T10:37:58;33.10;;;16.50;;
50267;SDS011;36153;50.960;6.220;2022-11-20T10:41:02;34.97;;;16.95;;
50267;SDS011;36153;50.960;6.220;2022-11-20T10:44:27;37.75;;;17.50;;
50267;SDS011;36153;50.960;6.220;2022-11-20T10:47:48;36.15;;;16.98;;
50267;SDS011;36153;50.960;6.220;2022-11-20T10:57:52;36.00;;;17.80;;
50267;SDS011;36153;50.960;6.220;2022-11-20T11:01:05;31.23;;;16.15;;
50267;SDS011;36153;50.960;6.220;2022-11-20T11:04:39;37.70;;;17.75;;
50267;SDS011;36153;50.960;6.220;2022-11-20T11:07:51;35.08;;;17.30;;
50267;SDS011;36153;50.960;6.220;2022-11-20T11:11:03;35.40;;;16.27;;
50267;SDS011;36153;50.960;6.220;2022-11-20T11:14:18;36.13;;;17.95;;
50267;SDS011;36153;50.960;6.220;2022-11-20T11:20:30;37.05;;;19.02;;
50267;SDS011;36153;50.960;6.220;2022-11-20T11:23:36;39.33;;;21.17;;
50267;SDS011;36153;50.960;6.220;2022-11-20T11:26:39;38.67;;;20.30;;
50267;SDS011;36153;50.960;6.220;2022-11-20T11:29:39;40.67;;;19.65;;
50267;SDS011;36153;50.960;6.220;2022-11-20T11:32:40;30.98;;;17.45;;
50267;SDS011;36153;50.960;6.220;2022-11-20T11:35:45;31.90;;;16.73;;
50267;SDS011;36153;50.960;6.220;2022-11-20T11:38:50;30.00;;;16.52;;
50267;SDS011;36153;50.960;6.220;2022-11-20T11:41:53;31.83;;;16.60;;
50267;SDS011;36153;50.960;6.220;2022-11-20T11:44:54;39.08;;;18.80;;
50267;SDS011;36153;50.960;6.220;2022-11-20T11:48:07;31.30;;;17.85;;
50267;SDS011;36153;50.960;6.220;2022-11-20T11:51:09;34.40;;;17.48;;
50267;SDS011;36153;50.960;6.220;2022-11-20T11:54:13;32.25;;;16.73;;
50267;SDS011;36153;50.960;6.220;2022-11-20T11:57:20;32.25;;;16.58;;
50267;SDS011;36153;50.960;6.220;2022-11-20T12:00:30;33.53;;;16.70;;
50267;SDS011;36153;50.960;6.220;2022-11-20T12:03:34;28.40;;;15.45;;
50267;SDS011;36153;50.960;6.220;2022-11-20T12:06:36;29.83;;;15.98;;
50267;SDS011;36153;50.960;6.220;2022-11-20T12:09:43;34.90;;;17.42;;
50267;SDS011;36153;50.960;6.220;2022-11-20T12:12:58;31.80;;;17.15;;
50267;SDS011;36153;50.960;6.220;2022-11-20T12:16:04;33.38;;;16.38;;
50267;SDS011;36153;50.960;6.220;2022-11-20T12:19:10;32.47;;;16.70;;
50267;SDS011;36153;50.960;6.220;2022-11-20T12:22:33;28.98;;;15.80;;
50267;SDS011;36153;50.960;6.220;2022-11-20T12:28:50;31.77;;;16.73;;
50267;SDS011;36153;50.960;6.220;2022-11-20T12:42:05;34.65;;;18.77;;
50267;SDS011;36153;50.960;6.220;2022-11-20T12:49:16;36.08;;;18.48;;
50267;SDS011;36153;50.960;6.220;2022-11-20T12:52:43;33.42;;;17.58;;
50267;SDS011;36153;50.960;6.220;2022-11-20T13:12:22;41.65;;;19.70;;
50267;SDS011;36153;50.960;6.220;2022-11-20T13:15:43;36.85;;;18.08;;
50267;SDS011;36153;50.960;6.220;2022-11-20T13:18:48;41.08;;;19.48;;
50267;SDS011;36153;50.960;6.220;2022-11-20T13:21:49;34.80;;;18.27;;
50267;SDS011;36153;50.960;6.220;2022-11-20T13:24:50;37.65;;;18.85;;
50267;SDS011;36153;50.960;6.220;2022-11-20T13:27:52;33.92;;;18.75;;
50267;SDS011;36153;50.960;6.220;2022-11-20T13:30:53;39.05;;;17.55;;
50267;SDS011;36153;50.960;6.220;2022-11-20T13:33:56;33.85;;;17.65;;
50267;SDS011;36153;50.960;6.220;2022-11-20T13:36:59;35.05;;;17.38;;
50267;SDS011;36153;50.960;6.220;2022-11-20T13:46:20;37.13;;;18.48;;
50267;SDS011;36153;50.960;6.220;2022-11-20T13:49:34;33.20;;;17.83;;
50267;SDS011;36153;50.960;6.220;2022-11-20T13:55:54;32.30;;;16.83;;
50267;SDS011;36153;50.960;6.220;2022-11-20T13:59:26;33.83;;;17.77;;
50267;SDS011;36153;50.960;6.220;2022-11-20T14:02:22;32.60;;;16.88;;
50267;SDS011;36153;50.960;6.220;2022-11-20T14:05:25;30.83;;;16.30;;
50267;SDS011;36153;50.960;6.220;2022-11-20T14:08:31;32.53;;;16.35;;
50267;SDS011;36153;50.960;6.220;2022-11-20T14:11:36;41.17;;;19.67;;
50267;SDS011;36153;50.960;6.220;2022-11-20T14:14:36;45.22;;;21.33;;
50267;SDS011;36153;50.960;6.220;2022-11-20T14:17:53;39.88;;;19.88;;
50267;SDS011;36153;50.960;6.220;2022-11-20T14:20:54;33.63;;;16.40;;
50267;SDS011;36153;50.960;6.220;2022-11-20T14:24:04;33.83;;;16.85;;
50267;SDS011;36153;50.960;6.220;2022-11-20T14:27:11;24.45;;;12.07;;
50267;SDS011;36153;50.960;6.220;2022-11-20T14:30:15;13.00;;;6.32;;
50267;SDS011;36153;50.960;6.220;2022-11-20T14:33:17;10.43;;;5.30;;
50267;SDS011;36153;50.960;6.220;2022-11-20T14:36:21;10.48;;;4.57;;
50267;SDS011;36153;50.960;6.220;2022-11-20T14:39:34;5.60;;;3.10;;
50267;SDS011;36153;50.960;6.220;2022-11-20T14:42:36;6.50;;;3.45;;
50267;SDS011;36153;50.960;6.220;2022-11-20T14:45:37;8.02;;;3.80;;
50267;SDS011;36153;50.960;6.220;2022-11-20T14:48:45;10.82;;;3.50;;
50267;SDS011;36153;50.960;6.220;2022-11-20T14:51:57;8.70;;;2.40;;
50267;SDS011;36153;50.960;6.220;2022-11-20T14:55:13;18.20;;;12.60;;
50267;SDS011;36153;50.960;6.220;2022-11-20T14:58:26;15.32;;;9.73;;
50267;SDS011;36153;50.960;6.220;2022-11-20T15:01:29;10.00;;;6.05;;
50267;SDS011;36153;50.960;6.220;2022-11-20T15:04:31;8.98;;;4.15;;
50267;SDS011;36153;50.960;6.220;2022-11-20T15:07:33;9.50;;;5.30;;
50267;SDS011;36153;50.960;6.220;2022-11-20T15:10:48;8.50;;;4.28;;
50267;SDS011;36153;50.960;6.220;2022-11-20T15:13:50;8.60;;;2.90;;
50267;SDS011;36153;50.960;6.220;2022-11-20T15:16:50;7.20;;;3.38;;
50267;SDS011;36153;50.960;6.220;2022-11-20T15:19:52;6.70;;;3.58;;
50267;SDS011;36153;50.960;6.220;2022-11-20T15:22:53;7.35;;;4.10;;
50267;SDS011;36153;50.960;6.220;2022-11-20T15:25:53;8.75;;;4.10;;
50267;SDS011;36153;50.960;6.220;2022-11-20T15:28:55;9.35;;;4.43;;
50267;SDS011;36153;50.960;6.220;2022-11-20T15:31:55;7.82;;;4.30;;
50267;SDS011;36153;50.960;6.220;2022-11-20T15:34:56;7.07;;;3.53;;
50267;SDS011;36153;50.960;6.220;2022-11-20T15:37:56;11.65;;;4.72;;
50267;SDS011;36153;50.960;6.220;2022-11-20T15:40:57;5.28;;;2.50;;
50267;SDS011;36153;50.960;6.220;2022-11-20T15:43:57;8.48;;;3.40;;
50267;SDS011;36153;50.960;6.220;2022-11-20T15:46:58;10.02;;;3.33;;
50267;SDS011;36153;50.960;6.220;2022-11-20T15:49:58;8.20;;;4.50;;
50267;SDS011;36153;50.960;6.220;2022-11-20T15:52:59;5.15;;;2.25;;
50267;SDS011;36153;50.960;6.220;2022-11-20T15:55:59;7.63;;;3.85;;
50267;SDS011;36153;50.960;6.220;2022-11-20T15:58:59;6.30;;;3.03;;
50267;SDS011;36153;50.960;6.220;2022-11-20T16:02:00;9.38;;;3.45;;
50267;SDS011;36153;50.960;6.220;2022-11-20T16:05:00;10.13;;;3.92;;
50267;SDS011;36153;50.960;6.220;2022-11-20T16:08:01;4.60;;;2.15;;
50267;SDS011;36153;50.960;6.220;2022-11-20T16:11:01;5.75;;;3.45;;
50267;SDS011;36153;50.960;6.220;2022-11-20T16:14:02;9.45;;;4.85;;
50267;SDS011;36153;50.960;6.220;2022-11-20T16:17:22;4.05;;;3.10;;
50267;SDS011;36153;50.960;6.220;2022-11-20T16:20:42;5.57;;;3.30;;
50267;SDS011;36153;50.960;6.220;2022-11-20T16:23:43;4.28;;;2.40;;
50267;SDS011;36153;50.960;6.220;2022-11-20T16:26:43;9.57;;;4.13;;
50267;SDS011;36153;50.960;6.220;2022-11-20T16:29:44;5.70;;;2.20;;
50267;SDS011;36153;50.960;6.220;2022-11-20T16:32:45;6.85;;;3.30;;
50267;SDS011;36153;50.960;6.220;2022-11-20T16:35:45;6.03;;;2.10;;
50267;SDS011;36153;50.960;6.220;2022-11-20T16:38:46;5.20;;;1.98;;
50267;SDS011;36153;50.960;6.220;2022-11-20T16:41:51;4.70;;;1.88;;
50267;SDS011;36153;50.960;6.220;2022-11-20T16:44:51;3.72;;;1.63;;
50267;SDS011;36153;50.960;6.220;2022-11-20T16:47:52;4.63;;;1.75;;
50267;SDS011;36153;50.960;6.220;2022-11-20T16:50:52;3.58;;;2.17;;
50267;SDS011;36153;50.960;6.220;2022-11-20T16:53:53;3.38;;;2.03;;
50267;SDS011;36153;50.960;6.220;2022-11-20T16:56:55;5.32;;;3.55;;
50267;SDS011;36153;50.960;6.220;2022-11-20T16:59:56;3.05;;;1.80;;
50267;SDS011;36153;50.960;6.220;2022-11-20T17:02:57;2.88;;;1.58;;
50267;SDS011;36153;50.960;6.220;2022-11-20T17:05:58;3.10;;;2.17;;
50267;SDS011;36153;50.960;6.220;2022-11-20T17:08:59;2.55;;;1.45;;
50267;SDS011;36153;50.960;6.220;2022-11-20T17:12:00;5.22;;;3.00;;
50267;SDS011;36153;50.960;6.220;2022-11-20T17:15:02;5.80;;;2.90;;
50267;SDS011;36153;50.960;6.220;2022-11-20T17:18:03;11.02;;;5.40;;
50267;SDS011;36153;50.960;6.220;2022-11-20T17:21:03;5.63;;;3.28;;
50267;SDS011;36153;50.960;6.220;2022-11-20T17:24:06;14.05;;;6.20;;
50267;SDS011;36153;50.960;6.220;2022-11-20T17:27:11;6.97;;;3.22;;
50267;SDS011;36153;50.960;6.220;2022-11-20T17:30:11;15.45;;;6.90;;
50267;SDS011;36153;50.960;6.220;2022-11-20T17:33:12;14.13;;;4.15;;
50267;SDS011;36153;50.960;6.220;2022-11-20T17:36:13;8.90;;;4.20;;
50267;SDS011;36153;50.960;6.220;2022-11-20T17:39:15;6.88;;;3.90;;
50267;SDS011;36153;50.960;6.220;2022-11-20T17:42:17;12.88;;;4.13;;
50267;SDS011;36153;50.960;6.220;2022-11-20T17:45:26;9.60;;;3.78;;
50267;SDS011;36153;50.960;6.220;2022-11-20T17:48:27;8.18;;;3.72;;
50267;SDS011;36153;50.960;6.220;2022-11-20T17:51:30;6.60;;;3.67;;
50267;SDS011;36153;50.960;6.220;2022-11-20T17:54:31;7.32;;;2.95;;
50267;SDS011;36153;50.960;6.220;2022-11-20T17:57:32;16.13;;;5.30;;
50267;SDS011;36153;50.960;6.220;2022-11-20T18:00:51;9.20;;;3.20;;
50267;SDS011;36153;50.960;6.220;2022-11-20T18:03:52;14.55;;;3.85;;
50267;SDS011;36153;50.960;6.220;2022-11-20T18:06:52;10.45;;;3.50;;
50267;SDS011;36153;50.960;6.220;2022-11-20T18:09:52;10.45;;;2.85;;
50267;SDS011;36153;50.960;6.220;2022-11-20T18:12:53;8.20;;;3.15;;
50267;SDS011;36153;50.960;6.220;2022-11-20T18:15:53;10.93;;;3.92;;
50267;SDS011;36153;50.960;6.220;2022-11-20T18:18:54;11.50;;;4.00;;
50267;SDS011;36153;50.960;6.220;2022-11-20T18:21:55;11.52;;;2.92;;
50267;SDS011;36153;50.960;6.220;2022-11-20T18:24:57;6.53;;;2.70;;
50267;SDS011;36153;50.960;6.220;2022-11-20T18:27:57;10.20;;;3.10;;
50267;SDS011;36153;50.960;6.220;2022-11-20T18:30:58;17.05;;;5.03;;
50267;SDS011;36153;50.960;6.220;2022-11-20T18:34:04;14.35;;;4.38;;
50267;SDS011;36153;50.960;6.220;2022-11-20T18:37:05;10.50;;;2.60;;
50267;SDS011;36153;50.960;6.220;2022-11-20T18:40:08;12.65;;;2.75;;
50267;SDS011;36153;50.960;6.220;2022-11-20T18:43:09;17.23;;;3.63;;
50267;SDS011;36153;50.960;6.220;2022-11-20T18:46:29;22.10;;;10.68;;
50267;SDS011;36153;50.960;6.220;2022-11-20T18:49:29;9.90;;;2.85;;
50267;SDS011;36153;50.960;6.220;2022-11-20T18:52:31;19.20;;;5.10;;
50267;SDS011;36153;50.960;6.220;2022-11-20T18:55:34;20.33;;;4.13;;
50267;SDS011;36153;50.960;6.220;2022-11-20T18:58:34;17.67;;;3.88;;
50267;SDS011;36153;50.960;6.220;2022-11-20T19:01:35;17.52;;;8.98;;
50267;SDS011;36153;50.960;6.220;2022-11-20T19:04:36;15.55;;;3.75;;
50267;SDS011;36153;50.960;6.220;2022-11-20T19:07:36;16.25;;;2.80;;
50267;SDS011;36153;50.960;6.220;2022-11-20T19:10:37;14.93;;;2.90;;
50267;SDS011;36153;50.960;6.220;2022-11-20T19:13:38;10.73;;;2.35;;
50267;SDS011;36153;50.960;6.220;2022-11-20T19:16:39;11.57;;;3.00;;